Time;durP1;ratioP1;P1;durP2;ratioP2;P2;SDS_P1;SDS_P2;PMS_P1;PMS_P2;Temp;Humidity;BMP_temperature;BMP_pressure;BME280_temperature;BME280_humidity;BME280_pressure;Samples;Min_cycle;Max_cycle;Signal;HPM_P1;HPM_P2
2022/12/27 00:00:23;;;;;;;;;;;;;;;;;;6242565;23;19912;-79
2022/12/27 00:02:49;;;;;;;;;;;;;;;;;;6242377;23;19912;-78
2022/12/27 00:05:14;;;;;;;;;;;;;;;;;;6243491;23;20006;-78
2022/12/27 00:07:40;;;;;;;;;;;;;;;;;;6244654;23;19958;-78
2022/12/27 00:10:06;;;;;;;;;;;;;;;;;;6243783;23;19912;-78
2022/12/27 00:12:32;;;;;;;;;;;;;;;;;;6243826;23;20310;-77
2022/12/27 00:14:57;;;;;;;;;;;;;;;;;;6216888;23;19998;-79
2022/12/27 00:17:23;;;;;;;;;;;;;;;;;;6243660;23;19943;-79
2022/12/27 00:19:48;;;;;;;;;;;;;;;;;;6217269;23;19915;-77
2022/12/27 00:22:14;;;;;;;;;;;;;;;;;;6217487;23;19911;-78
2022/12/27 00:24:40;;;;;;;;;;;;;;;;;;6217997;23;19923;-77
2022/12/27 00:27:05;;;;;;;;;;;;;;;;;;6216670;23;19912;-77
2022/12/27 00:29:31;;;;;;;;;;;;;;;;;;6191850;23;19925;-78
2022/12/27 00:31:57;;;;;;;;;;;;;;;;;;6166496;23;19919;-77
2022/12/27 00:34:23;;;;;;;;;;;;;;;;;;6244129;23;20471;-77
2022/12/27 00:36:48;;;;;;;;;;;;;;;;;;6243176;23;19939;-78
2022/12/27 00:39:14;;;;;;;;;;;;;;;;;;6244045;23;19912;-77
2022/12/27 00:41:40;;;;;;;;;;;;;;;;;;6191699;23;19915;-77
2022/12/27 00:44:06;;;;;;;;;;;;;;;;;;6216972;23;20261;-78
2022/12/27 00:46:32;;;;;;;;;;;;;;;;;;6244135;23;19911;-78
2022/12/27 00:48:59;;;;;;;;;;;;;;;;;;6243614;23;19915;-79
2022/12/27 00:51:25;;;;;;;;;;;;;;;;;;6244540;23;19917;-78
2022/12/27 00:53:51;;;;;;;;;;;;;;;;;;6192075;23;19915;-80
2022/12/27 00:56:16;;;;;;;;;;;;;;;;;;6244095;23;19991;-78
2022/12/27 00:58:42;;;;;;;;;;;;;;;;;;6215799;23;19916;-77
2022/12/27 01:01:08;;;;;;;;;;;;;;;;;;6243287;23;19911;-76
2022/12/27 01:03:33;;;;;;;;;;;;;;;;;;6243955;23;20442;-78
2022/12/27 01:05:59;;;;;;;;;;;;;;;;;;6217050;23;20341;-78
2022/12/27 01:08:26;;;;;;;;;;;;;;;;;;6215941;23;20277;-77
2022/12/27 01:10:51;;;;;;;;;;;;;;;;;;6190911;23;19911;-78
2022/12/27 01:13:17;;;;;;;;;;;;;;;;;;6243026;23;20038;-77
2022/12/27 01:15:43;;;;;;;;;;;;;;;;;;6243398;23;19965;-77
2022/12/27 01:18:08;;;;;;;;;;;;;;;;;;6215443;23;19986;-77
2022/12/27 01:20:34;;;;;;;;;;;;;;;;;;6216406;23;19931;-77
2022/12/27 01:23:00;;;;;;;;;;;;;;;;;;6242527;23;19937;-78
2022/12/27 01:25:25;;;;;;;;;;;;;;;;;;6216650;23;19915;-76
2022/12/27 01:27:51;;;;;;;;;;;;;;;;;;6242628;23;19912;-77
2022/12/27 01:30:17;;;;;;;;;;;;;;;;;;6216482;23;19927;-77
2022/12/27 01:32:42;;;;;;;;;;;;;;;;;;6216247;23;19911;-78
2022/12/27 01:35:08;;;;;;;;;;;;;;;;;;6190186;23;19946;-77
2022/12/27 01:37:34;;;;;;;;;;;;;;;;;;6214743;23;20011;-77
2022/12/27 01:39:59;;;;;;;;;;;;;;;;;;6242492;23;19923;-76
2022/12/27 01:45:10;;;;;;;;;;;;;;;;;;6241782;23;19923;-76
2022/12/27 01:47:36;;;;;;;;;;;;;;;;;;6215709;23;19919;-76
2022/12/27 01:50:01;;;;;;;;;;;;;;;;;;6216174;23;20367;-77
2022/12/27 01:52:28;;;;;;;;;;;;;;;;;;6242977;23;20345;-77
2022/12/27 01:54:53;;;;;;;;;;;;;;;;;;6242347;23;19998;-77
2022/12/27 01:57:19;;;;;;;;;;;;;;;;;;6242516;23;19912;-78
2022/12/27 01:59:44;;;;;;;;;;;;;;;;;;6242798;23;19912;-75
2022/12/27 02:02:10;;;;;;;;;;;;;;;;;;6215721;23;20324;-79
2022/12/27 02:04:36;;;;;;;;;;;;;;;;;;6215331;23;19942;-77
2022/12/27 02:07:01;;;;;;;;;;;;;;;;;;6215355;23;19911;-78
2022/12/27 02:09:27;;;;;;;;;;;;;;;;;;6242928;23;19938;-77
2022/12/27 02:11:54;;;;;;;;;;;;;;;;;;6242789;23;19911;-78
2022/12/27 02:14:20;;;;;;;;;;;;;;;;;;6216798;23;19934;-78
2022/12/27 02:17:05;;;;;;;;;;;;;;;;;;6219493;23;19912;-78
2022/12/27 02:19:31;;;;;;;;;;;;;;;;;;6242613;23;19918;-77
2022/12/27 02:21:56;;;;;;;;;;;;;;;;;;6214943;23;19992;-76
2022/12/27 02:24:22;;;;;;;;;;;;;;;;;;6242820;23;19927;-76
2022/12/27 02:26:48;;;;;;;;;;;;;;;;;;6242285;23;19935;-78
2022/12/27 02:29:13;;;;;;;;;;;;;;;;;;6242150;23;20340;-77
2022/12/27 02:31:39;;;;;;;;;;;;;;;;;;6210434;23;19931;-78
2022/12/27 02:34:04;;;;;;;;;;;;;;;;;;6212279;23;19912;-76
2022/12/27 02:36:30;;;;;;;;;;;;;;;;;;6211022;23;19923;-79
2022/12/27 02:38:56;;;;;;;;;;;;;;;;;;6212271;23;19912;-78
2022/12/27 02:55:04;;;;;;;;;;;;;;;;;;6212387;23;19994;-76
2022/12/27 02:57:29;;;;;;;;;;;;;;;;;;6212434;23;20216;-75
2022/12/27 03:05:24;;;;;;;;;;;;;;;;;;6213143;23;19920;-78
2022/12/27 03:07:49;;;;;;;;;;;;;;;;;;6222416;23;19912;-78
2022/12/27 03:15:56;;;;;;;;;;;;;;;;;;6196975;23;19912;-78
2022/12/27 03:18:22;;;;;;;;;;;;;;;;;;6221287;23;19912;-78
2022/12/27 03:26:27;;;;;;;;;;;;;;;;;;6209398;23;19907;-86
2022/12/27 03:34:31;;;;;;;;;;;;;;;;;;6212436;23;19911;-85
2022/12/27 03:39:38;;;;;;;;;;;;;;;;;;6259870;22;19924;-81
2022/12/27 03:44:48;;;;;;;;;;;;;;;;;;6261479;23;19958;-84
2022/12/27 03:47:14;;;;;;;;;;;;;;;;;;6269590;23;19903;-83
2022/12/27 03:49:40;;;;;;;;;;;;;;;;;;6245644;22;19919;-84
2022/12/27 03:52:05;;;;;;;;;;;;;;;;;;6275260;22;19955;-84
2022/12/27 03:54:31;;;;;;;;;;;;;;;;;;6212906;23;19935;-82
2022/12/27 03:57:00;;;;;;;;;;;;;;;;;;6211047;22;19922;-81
2022/12/27 03:59:26;;;;;;;;;;;;;;;;;;6200215;22;20291;-83
2022/12/27 04:04:31;;;;;;;;;;;;;;;;;;6245574;22;19908;-83
2022/12/27 04:06:59;;;;;;;;;;;;;;;;;;6242403;22;19923;-81
2022/12/27 04:36:35;;;;;;;;;;;;;;;;;;6165603;23;19908;-84
2022/12/27 04:39:00;;;;;;;;;;;;;;;;;;6215361;23;19903;-86
2022/12/27 04:55:13;;;;;;;;;;;;;;;;;;6239120;22;20997;-80
2022/12/27 04:57:39;;;;;;;;;;;;;;;;;;6212407;23;19923;-83
2022/12/27 05:03:04;;;;;;;;;;;;;;;;;;6248492;22;19907;-85
2022/12/27 05:05:30;;;;;;;;;;;;;;;;;;6246965;22;19900;-85
2022/12/27 05:16:06;;;;;;;;;;;;;;;;;;6245884;22;20094;-82
2022/12/27 05:21:20;;;;;;;;;;;;;;;;;;6257536;22;19920;-83
2022/12/27 05:29:35;;;;;;;;;;;;;;;;;;6256083;22;19930;-82
2022/12/27 05:32:01;;;;;;;;;;;;;;;;;;6229213;23;19904;-85
2022/12/27 05:34:26;;;;;;;;;;;;;;;;;;6222425;23;19904;-83
2022/12/27 05:36:52;;;;;;;;;;;;;;;;;;6236185;23;19919;-83
2022/12/27 05:39:18;;;;;;;;;;;;;;;;;;6233529;22;19904;-84
2022/12/27 05:41:44;;;;;;;;;;;;;;;;;;6219408;22;19934;-83
2022/12/27 05:44:09;;;;;;;;;;;;;;;;;;6232039;22;20536;-80
2022/12/27 05:46:35;;;;;;;;;;;;;;;;;;6272284;22;19922;-81
2022/12/27 05:49:01;;;;;;;;;;;;;;;;;;6245407;22;19915;-85
2022/12/27 05:51:27;;;;;;;;;;;;;;;;;;6204199;23;19919;-83
2022/12/27 05:53:52;;;;;;;;;;;;;;;;;;6236289;23;19964;-84
2022/12/27 05:56:18;;;;;;;;;;;;;;;;;;6216776;23;19957;-84
2022/12/27 05:58:44;;;;;;;;;;;;;;;;;;6252450;22;19907;-84
2022/12/27 06:01:09;;;;;;;;;;;;;;;;;;6257085;22;19955;-82
2022/12/27 06:03:35;;;;;;;;;;;;;;;;;;6263765;22;19914;-85
2022/12/27 06:06:01;;;;;;;;;;;;;;;;;;6243162;22;19907;-84
2022/12/27 06:08:27;;;;;;;;;;;;;;;;;;6181819;23;19919;-84
2022/12/27 06:10:53;;;;;;;;;;;;;;;;;;6241900;23;19923;-84
2022/12/27 06:13:19;;;;;;;;;;;;;;;;;;6239948;23;19908;-88
2022/12/27 06:15:44;;;;;;;;;;;;;;;;;;6232930;23;20461;-82
2022/12/27 06:18:10;;;;;;;;;;;;;;;;;;6179589;23;19974;-83
2022/12/27 06:20:36;;;;;;;;;;;;;;;;;;6230593;23;19912;-83
2022/12/27 06:23:01;;;;;;;;;;;;;;;;;;6232468;23;19916;-85
2022/12/27 06:25:27;;;;;;;;;;;;;;;;;;6209033;23;19951;-82
2022/12/27 06:27:53;;;;;;;;;;;;;;;;;;6239337;23;19943;-82
2022/12/27 06:30:18;;;;;;;;;;;;;;;;;;6188724;23;19923;-84
2022/12/27 06:32:44;;;;;;;;;;;;;;;;;;6236293;22;19990;-85
2022/12/27 06:35:10;;;;;;;;;;;;;;;;;;6266220;22;19900;-85
2022/12/27 06:37:35;;;;;;;;;;;;;;;;;;6216141;23;19912;-85
2022/12/27 06:40:01;;;;;;;;;;;;;;;;;;6267140;23;19911;-83
2022/12/27 06:42:27;;;;;;;;;;;;;;;;;;6271240;22;19912;-87
2022/12/27 06:44:53;;;;;;;;;;;;;;;;;;6242502;23;20369;-85
2022/12/27 06:47:18;;;;;;;;;;;;;;;;;;6217149;22;19931;-86
2022/12/27 06:49:44;;;;;;;;;;;;;;;;;;6225586;22;19927;-82
2022/12/27 06:52:10;;;;;;;;;;;;;;;;;;6235242;23;19922;-81
2022/12/27 06:54:35;;;;;;;;;;;;;;;;;;6234966;23;19911;-82
2022/12/27 06:57:01;;;;;;;;;;;;;;;;;;6266998;22;19963;-88
2022/12/27 06:59:27;;;;;;;;;;;;;;;;;;6238248;22;19923;-82
2022/12/27 07:01:52;;;;;;;;;;;;;;;;;;6244348;22;19935;-82
2022/12/27 07:04:18;;;;;;;;;;;;;;;;;;6204243;23;20422;-83
2022/12/27 07:06:44;;;;;;;;;;;;;;;;;;6213659;23;19908;-87
2022/12/27 07:09:10;;;;;;;;;;;;;;;;;;6218921;23;19919;-84
2022/12/27 07:11:36;;;;;;;;;;;;;;;;;;6261100;23;19966;-81
2022/12/27 07:14:01;;;;;;;;;;;;;;;;;;6255345;23;19911;-82
2022/12/27 07:16:27;;;;;;;;;;;;;;;;;;6260722;23;19958;-83
2022/12/27 07:18:53;;;;;;;;;;;;;;;;;;6257088;23;19974;-82
2022/12/27 07:21:18;;;;;;;;;;;;;;;;;;6258003;23;19941;-87
2022/12/27 07:23:44;;;;;;;;;;;;;;;;;;6270699;22;19940;-86
2022/12/27 07:26:10;;;;;;;;;;;;;;;;;;6266580;22;19907;-88
2022/12/27 07:28:35;;;;;;;;;;;;;;;;;;6242190;23;19911;-84
2022/12/27 07:31:01;;;;;;;;;;;;;;;;;;6271861;22;20341;-82
2022/12/27 07:33:27;;;;;;;;;;;;;;;;;;6270995;23;19911;-88
2022/12/27 07:35:53;;;;;;;;;;;;;;;;;;6265867;22;19927;-83
2022/12/27 07:38:19;;;;;;;;;;;;;;;;;;6211792;23;19985;-87
2022/12/27 07:40:44;;;;;;;;;;;;;;;;;;6245012;23;19934;-87
2022/12/27 07:43:10;;;;;;;;;;;;;;;;;;6260193;22;19923;-84
2022/12/27 07:45:36;;;;;;;;;;;;;;;;;;6239352;23;19978;-82
2022/12/27 07:48:01;;;;;;;;;;;;;;;;;;6263512;23;19919;-85
2022/12/27 07:50:27;;;;;;;;;;;;;;;;;;6266217;23;19939;-83
2022/12/27 07:52:52;;;;;;;;;;;;;;;;;;6266496;23;19911;-83
2022/12/27 07:55:18;;;;;;;;;;;;;;;;;;6267480;23;19931;-83
2022/12/27 07:57:44;;;;;;;;;;;;;;;;;;6264953;23;19911;-83
2022/12/27 08:00:09;;;;;;;;;;;;;;;;;;6265914;23;19919;-83
2022/12/27 08:02:38;;;;;;;;;;;;;;;;;;6260994;23;19911;-81
2022/12/27 08:07:52;;;;;;;;;;;;;;;;;;6211498;22;19923;-83
2022/12/27 08:10:18;;;;;;;;;;;;;;;;;;6221585;23;19911;-82
2022/12/27 08:12:43;;;;;;;;;;;;;;;;;;6223116;23;19986;-80
2022/12/27 08:15:09;;;;;;;;;;;;;;;;;;6248002;23;20361;-80
2022/12/27 08:17:36;;;;;;;;;;;;;;;;;;6192605;23;20352;-79
2022/12/27 08:20:02;;;;;;;;;;;;;;;;;;6243029;23;19921;-79
2022/12/27 08:22:28;;;;;;;;;;;;;;;;;;6243162;23;20331;-77
2022/12/27 08:24:55;;;;;;;;;;;;;;;;;;6243311;23;19995;-81
2022/12/27 08:27:21;;;;;;;;;;;;;;;;;;6242560;23;19911;-79
2022/12/27 08:29:46;;;;;;;;;;;;;;;;;;6242153;23;19969;-78
2022/12/27 08:32:12;;;;;;;;;;;;;;;;;;6243077;23;19911;-76
2022/12/27 08:34:38;;;;;;;;;;;;;;;;;;6242082;23;19907;-77
2022/12/27 08:37:04;;;;;;;;;;;;;;;;;;6244095;23;19911;-79
2022/12/27 08:39:30;;;;;;;;;;;;;;;;;;6216996;23;19911;-78
2022/12/27 08:41:55;;;;;;;;;;;;;;;;;;6244889;23;19918;-79
2022/12/27 08:44:21;;;;;;;;;;;;;;;;;;6243292;23;19912;-79
2022/12/27 08:46:47;;;;;;;;;;;;;;;;;;6218160;23;19946;-80
2022/12/27 08:49:12;;;;;;;;;;;;;;;;;;6245312;23;19919;-78
2022/12/27 08:51:38;;;;;;;;;;;;;;;;;;6241742;23;19931;-79
2022/12/27 08:54:04;;;;;;;;;;;;;;;;;;6216156;23;19934;-80
2022/12/27 08:56:29;;;;;;;;;;;;;;;;;;6190980;23;19912;-80
2022/12/27 08:58:55;;;;;;;;;;;;;;;;;;6215593;23;19912;-81
2022/12/27 09:01:21;;;;;;;;;;;;;;;;;;6240549;23;19966;-79
2022/12/27 09:03:46;;;;;;;;;;;;;;;;;;6247026;23;20514;-82
2022/12/27 09:06:14;;;;;;;;;;;;;;;;;;6219264;23;19912;-79
2022/12/27 09:08:40;;;;;;;;;;;;;;;;;;6255172;22;19954;-83
2022/12/27 09:11:06;;;;;;;;;;;;;;;;;;6243662;23;19914;-83
2022/12/27 09:13:32;;;;;;;;;;;;;;;;;;6266495;23;19912;-82
2022/12/27 09:15:57;;;;;;;;;;;;;;;;;;6230856;23;19912;-83
2022/12/27 09:18:23;;;;;;;;;;;;;;;;;;6251282;23;19912;-80
2022/12/27 09:20:49;;;;;;;;;;;;;;;;;;6201584;23;19911;-81
2022/12/27 09:23:15;;;;;;;;;;;;;;;;;;6254557;23;20009;-82
2022/12/27 09:25:41;;;;;;;;;;;;;;;;;;6267891;22;19950;-87
2022/12/27 09:28:08;;;;;;;;;;;;;;;;;;6266931;23;19911;-81
2022/12/27 09:30:33;;;;;;;;;;;;;;;;;;6264097;23;19898;-81
2022/12/27 09:32:59;;;;;;;;;;;;;;;;;;6263846;23;20368;-83
2022/12/27 09:35:24;;;;;;;;;;;;;;;;;;6237464;23;19942;-82
2022/12/27 09:37:51;;;;;;;;;;;;;;;;;;6236861;23;19904;-86
2022/12/27 09:42:59;;;;;;;;;;;;;;;;;;6208657;22;19924;-86
2022/12/27 09:45:25;;;;;;;;;;;;;;;;;;6237110;23;20251;-81
2022/12/27 09:47:50;;;;;;;;;;;;;;;;;;6246638;23;19912;-81
2022/12/27 09:50:16;;;;;;;;;;;;;;;;;;6252728;23;19912;-82
2022/12/27 09:52:41;;;;;;;;;;;;;;;;;;6232091;23;19908;-82
2022/12/27 09:55:07;;;;;;;;;;;;;;;;;;6256384;23;20303;-83
2022/12/27 09:57:33;;;;;;;;;;;;;;;;;;6261912;23;19915;-82
2022/12/27 09:59:59;;;;;;;;;;;;;;;;;;6256699;23;19918;-80
2022/12/27 10:02:24;;;;;;;;;;;;;;;;;;6256240;23;19923;-81
2022/12/27 10:04:50;;;;;;;;;;;;;;;;;;6253081;23;19919;-81
2022/12/27 10:07:16;;;;;;;;;;;;;;;;;;6197974;23;19911;-79
2022/12/27 10:40:05;;;;;;;;;;;;;;;;;;6244858;23;19927;-81
2022/12/27 10:42:31;;;;;;;;;;;;;;;;;;6248831;23;19931;-86
2022/12/27 10:44:57;;;;;;;;;;;;;;;;;;6245113;22;20309;-83
2022/12/27 10:47:22;;;;;;;;;;;;;;;;;;6227715;23;19918;-84
2022/12/27 10:49:48;;;;;;;;;;;;;;;;;;6255578;23;19938;-83
2022/12/27 10:52:14;;;;;;;;;;;;;;;;;;6256777;23;19911;-83
2022/12/27 10:54:39;;;;;;;;;;;;;;;;;;6259129;23;19912;-83
2022/12/27 10:57:05;;;;;;;;;;;;;;;;;;6235453;23;19912;-82
2022/12/27 10:59:30;;;;;;;;;;;;;;;;;;6255806;23;19919;-82
2022/12/27 11:01:56;;;;;;;;;;;;;;;;;;6249704;23;20710;-82
2022/12/27 11:04:22;;;;;;;;;;;;;;;;;;6249862;23;19919;-84
2022/12/27 11:06:47;;;;;;;;;;;;;;;;;;6249273;23;19922;-81
2022/12/27 11:09:13;;;;;;;;;;;;;;;;;;6220974;23;20419;-81
2022/12/27 11:11:39;;;;;;;;;;;;;;;;;;6251159;23;19936;-81
2022/12/27 11:14:04;;;;;;;;;;;;;;;;;;6259806;23;19950;-87
2022/12/27 11:19:20;;;;;;;;;;;;;;;;;;6195368;23;19971;-85
2022/12/27 11:21:46;;;;;;;;;;;;;;;;;;6192149;23;19939;-79
2022/12/27 11:24:11;;;;;;;;;;;;;;;;;;6188942;23;19920;-82
2022/12/27 11:26:37;;;;;;;;;;;;;;;;;;6199190;23;20175;-80
2022/12/27 11:29:03;;;;;;;;;;;;;;;;;;6203057;23;19904;-85
2022/12/27 11:31:28;;;;;;;;;;;;;;;;;;6216329;22;19940;-88
2022/12/27 11:33:54;;;;;;;;;;;;;;;;;;6269810;22;19923;-80
2022/12/27 11:36:20;;;;;;;;;;;;;;;;;;6257316;23;19918;-83
2022/12/27 11:38:46;;;;;;;;;;;;;;;;;;6251326;23;19918;-82
2022/12/27 11:41:12;;;;;;;;;;;;;;;;;;6227370;23;19915;-81
2022/12/27 11:43:38;;;;;;;;;;;;;;;;;;6220667;23;20289;-83
2022/12/27 11:46:03;;;;;;;;;;;;;;;;;;6246358;23;19918;-82
2022/12/27 11:48:29;;;;;;;;;;;;;;;;;;6243410;23;19912;-81
2022/12/27 11:50:55;;;;;;;;;;;;;;;;;;6259142;23;19912;-84
2022/12/27 11:53:20;;;;;;;;;;;;;;;;;;6236029;23;19912;-85
2022/12/27 11:55:46;;;;;;;;;;;;;;;;;;6234792;23;19937;-84
2022/12/27 11:58:12;;;;;;;;;;;;;;;;;;6230725;23;19991;-81
2022/12/27 12:00:38;;;;;;;;;;;;;;;;;;6257358;23;19912;-83
2022/12/27 12:03:04;;;;;;;;;;;;;;;;;;6267215;23;19915;-85
2022/12/27 12:05:29;;;;;;;;;;;;;;;;;;6265706;23;19935;-85
2022/12/27 12:07:55;;;;;;;;;;;;;;;;;;6242908;23;19895;-85
2022/12/27 12:10:20;;;;;;;;;;;;;;;;;;6268956;23;19927;-85
2022/12/27 12:12:46;;;;;;;;;;;;;;;;;;6270311;22;19918;-84
2022/12/27 12:15:12;;;;;;;;;;;;;;;;;;6241035;23;19911;-82
2022/12/27 12:17:38;;;;;;;;;;;;;;;;;;6267552;23;19911;-85
2022/12/27 12:20:04;;;;;;;;;;;;;;;;;;6261981;23;19916;-84
2022/12/27 12:22:29;;;;;;;;;;;;;;;;;;6259106;23;19912;-84
2022/12/27 12:24:55;;;;;;;;;;;;;;;;;;6264466;23;19927;-84
2022/12/27 12:27:21;;;;;;;;;;;;;;;;;;6260326;23;19912;-84
2022/12/27 12:29:47;;;;;;;;;;;;;;;;;;6254300;22;20701;-82
2022/12/27 12:32:12;;;;;;;;;;;;;;;;;;6211924;22;19954;-87
2022/12/27 12:34:38;;;;;;;;;;;;;;;;;;6216899;23;19908;-85
2022/12/27 12:37:04;;;;;;;;;;;;;;;;;;6232556;23;19912;-87
2022/12/27 12:39:30;;;;;;;;;;;;;;;;;;6239109;23;19918;-86
2022/12/27 12:41:55;;;;;;;;;;;;;;;;;;6240704;23;19904;-85
2022/12/27 12:44:21;;;;;;;;;;;;;;;;;;6247717;22;19926;-85
2022/12/27 12:46:47;;;;;;;;;;;;;;;;;;6264782;23;19922;-84
2022/12/27 12:49:12;;;;;;;;;;;;;;;;;;6237827;23;19916;-81
2022/12/27 12:51:38;;;;;;;;;;;;;;;;;;6236392;23;19911;-83
2022/12/27 12:54:04;;;;;;;;;;;;;;;;;;6263201;23;19903;-82
2022/12/27 12:56:29;;;;;;;;;;;;;;;;;;6262389;23;19943;-82
2022/12/27 12:58:55;;;;;;;;;;;;;;;;;;6239340;23;19923;-84
2022/12/27 13:01:21;;;;;;;;;;;;;;;;;;6264004;23;20380;-83
2022/12/27 13:03:47;;;;;;;;;;;;;;;;;;6257878;23;19919;-84
2022/12/27 13:06:12;;;;;;;;;;;;;;;;;;6258924;23;19915;-80
2022/12/27 13:08:38;;;;;;;;;;;;;;;;;;6263395;23;19911;-84
2022/12/27 13:11:03;;;;;;;;;;;;;;;;;;6267263;23;19912;-84
2022/12/27 13:13:29;;;;;;;;;;;;;;;;;;6236201;23;19955;-83
2022/12/27 13:15:54;;;;;;;;;;;;;;;;;;6237672;23;19891;-84
2022/12/27 13:18:20;;;;;;;;;;;;;;;;;;6259809;23;19993;-81
2022/12/27 13:20:46;;;;;;;;;;;;;;;;;;6263034;22;19914;-83
2022/12/27 13:23:11;;;;;;;;;;;;;;;;;;6215639;23;19951;-83
2022/12/27 13:25:37;;;;;;;;;;;;;;;;;;6261179;22;19896;-82
2022/12/27 13:28:03;;;;;;;;;;;;;;;;;;6173806;23;19901;-83
2022/12/27 13:30:28;;;;;;;;;;;;;;;;;;6171855;23;19935;-81
2022/12/27 13:32:54;;;;;;;;;;;;;;;;;;6191026;23;19912;-82
2022/12/27 13:35:20;;;;;;;;;;;;;;;;;;6194788;23;19912;-83
2022/12/27 13:40:36;;;;;;;;;;;;;;;;;;6205219;23;19940;-84
2022/12/27 13:43:04;;;;;;;;;;;;;;;;;;6196218;22;19930;-83
2022/12/27 13:45:30;;;;;;;;;;;;;;;;;;6243733;22;19904;-85
2022/12/27 13:50:39;;;;;;;;;;;;;;;;;;6240019;22;19923;-83
2022/12/27 13:53:04;;;;;;;;;;;;;;;;;;6205492;22;21145;-81
2022/12/27 14:06:45;;;;;;;;;;;;;;;;;;6223979;22;19904;-89
2022/12/27 14:09:11;;;;;;;;;;;;;;;;;;6272393;22;19915;-85
2022/12/27 14:11:36;;;;;;;;;;;;;;;;;;6237514;23;19919;-82
2022/12/27 14:14:02;;;;;;;;;;;;;;;;;;6261308;22;20383;-82
2022/12/27 14:16:28;;;;;;;;;;;;;;;;;;6266077;22;19929;-88
2022/12/27 14:24:09;;;;;;;;;;;;;;;;;;6239262;22;19923;-85
2022/12/27 14:26:35;;;;;;;;;;;;;;;;;;6203460;22;20522;-83
2022/12/27 14:29:01;;;;;;;;;;;;;;;;;;6208549;23;19924;-84
2022/12/27 14:31:26;;;;;;;;;;;;;;;;;;6232023;23;19916;-85
2022/12/27 14:33:52;;;;;;;;;;;;;;;;;;6235481;23;19896;-83
2022/12/27 14:36:17;;;;;;;;;;;;;;;;;;6224921;23;19955;-80
2022/12/27 14:38:43;;;;;;;;;;;;;;;;;;6204011;23;19980;-83
2022/12/27 14:41:09;;;;;;;;;;;;;;;;;;6219136;23;19911;-80
2022/12/27 14:43:35;;;;;;;;;;;;;;;;;;6213615;23;19931;-80
2022/12/27 14:46:01;;;;;;;;;;;;;;;;;;6215682;23;19912;-83
2022/12/27 14:48:27;;;;;;;;;;;;;;;;;;6223369;23;19951;-86
2022/12/27 14:50:53;;;;;;;;;;;;;;;;;;6238339;23;19900;-80
2022/12/27 14:53:18;;;;;;;;;;;;;;;;;;6226730;23;20371;-82
2022/12/27 14:55:44;;;;;;;;;;;;;;;;;;6221323;23;19935;-83
2022/12/27 14:58:09;;;;;;;;;;;;;;;;;;6225806;23;19919;-82
2022/12/27 15:00:35;;;;;;;;;;;;;;;;;;6224252;23;19911;-82
2022/12/27 15:03:00;;;;;;;;;;;;;;;;;;6216788;23;19920;-80
2022/12/27 15:05:26;;;;;;;;;;;;;;;;;;6210760;23;19928;-80
2022/12/27 15:07:52;;;;;;;;;;;;;;;;;;6237450;23;19912;-84
2022/12/27 15:10:18;;;;;;;;;;;;;;;;;;6239352;23;19922;-85
2022/12/27 15:12:43;;;;;;;;;;;;;;;;;;6235886;23;19912;-88
2022/12/27 15:15:09;;;;;;;;;;;;;;;;;;6204740;23;19912;-79
2022/12/27 15:17:35;;;;;;;;;;;;;;;;;;6223283;23;20018;-81
2022/12/27 15:20:00;;;;;;;;;;;;;;;;;;6228483;23;19903;-85
2022/12/27 15:22:26;;;;;;;;;;;;;;;;;;6236747;23;19923;-82
2022/12/27 15:24:51;;;;;;;;;;;;;;;;;;6211318;22;20188;-84
2022/12/27 15:27:17;;;;;;;;;;;;;;;;;;6270366;22;20058;-86
2022/12/27 15:29:43;;;;;;;;;;;;;;;;;;6244537;22;19933;-90
2022/12/27 15:32:08;;;;;;;;;;;;;;;;;;6218214;23;19899;-84
2022/12/27 15:34:34;;;;;;;;;;;;;;;;;;6261342;23;19938;-83
2022/12/27 15:37:00;;;;;;;;;;;;;;;;;;6234111;23;19951;-83
2022/12/27 15:39:26;;;;;;;;;;;;;;;;;;6263291;23;19911;-82
2022/12/27 15:41:51;;;;;;;;;;;;;;;;;;6256683;23;19934;-82
2022/12/27 15:44:17;;;;;;;;;;;;;;;;;;6254197;23;19920;-86
2022/12/27 15:46:43;;;;;;;;;;;;;;;;;;6233741;23;19907;-84
2022/12/27 15:51:57;;;;;;;;;;;;;;;;;;6233309;22;19908;-85
2022/12/27 15:54:23;;;;;;;;;;;;;;;;;;6274243;22;20106;-85
2022/12/27 15:56:48;;;;;;;;;;;;;;;;;;6247429;23;19926;-84
2022/12/27 15:59:14;;;;;;;;;;;;;;;;;;6273566;23;19916;-83
2022/12/27 16:01:40;;;;;;;;;;;;;;;;;;6246036;23;19896;-85
2022/12/27 16:14:53;;;;;;;;;;;;;;;;;;6258268;22;19991;-80
2022/12/27 16:17:19;;;;;;;;;;;;;;;;;;6242198;23;19939;-82
2022/12/27 16:19:44;;;;;;;;;;;;;;;;;;6244680;23;19900;-84
2022/12/27 16:22:10;;;;;;;;;;;;;;;;;;6222807;23;19927;-85
2022/12/27 16:24:36;;;;;;;;;;;;;;;;;;6221904;23;19931;-83
2022/12/27 16:27:03;;;;;;;;;;;;;;;;;;6245406;23;19896;-84
2022/12/27 16:29:31;;;;;;;;;;;;;;;;;;6271628;23;19895;-85
2022/12/27 16:31:56;;;;;;;;;;;;;;;;;;6245926;23;19912;-82
2022/12/27 16:34:22;;;;;;;;;;;;;;;;;;6272683;22;19907;-82
2022/12/27 16:36:47;;;;;;;;;;;;;;;;;;6244943;23;19891;-83
2022/12/27 16:39:13;;;;;;;;;;;;;;;;;;6273142;22;19904;-85
2022/12/27 16:44:27;;;;;;;;;;;;;;;;;;6234997;22;19934;-88
2022/12/27 16:46:53;;;;;;;;;;;;;;;;;;6194706;23;19920;-88
2022/12/27 16:49:22;;;;;;;;;;;;;;;;;;6205770;23;19903;-87
2022/12/27 16:54:36;;;;;;;;;;;;;;;;;;6226474;22;19924;-89
2022/12/27 17:02:40;;;;;;;;;;;;;;;;;;6257197;22;19911;-87
2022/12/27 17:13:28;;;;;;;;;;;;;;;;;;6204242;22;19926;-89
2022/12/27 17:24:22;;;;;;;;;;;;;;;;;;6186683;22;20755;-89
2022/12/27 17:26:48;;;;;;;;;;;;;;;;;;6222105;23;20312;-83
2022/12/27 17:29:13;;;;;;;;;;;;;;;;;;6233605;23;19912;-83
2022/12/27 17:31:39;;;;;;;;;;;;;;;;;;6230686;23;19926;-84
2022/12/27 17:34:04;;;;;;;;;;;;;;;;;;6220203;23;19962;-82
2022/12/27 17:36:30;;;;;;;;;;;;;;;;;;6218610;23;19981;-83
2022/12/27 17:38:56;;;;;;;;;;;;;;;;;;6224308;23;19919;-83
2022/12/27 17:44:36;;;;;;;;;;;;;;;;;;6222431;23;19918;-81
2022/12/27 17:46:52;;;;;;;;;;;;;;;;;;6223451;23;19946;-83
2022/12/27 17:49:18;;;;;;;;;;;;;;;;;;6221280;23;19911;-82
2022/12/27 17:57:52;;;;;;;;;;;;;;;;;;6223635;23;19961;-84
2022/12/27 18:00:08;;;;;;;;;;;;;;;;;;6228854;23;19912;-82
2022/12/27 18:02:37;;;;;;;;;;;;;;;;;;6229111;23;19919;-82
2022/12/27 18:05:02;;;;;;;;;;;;;;;;;;6227214;23;19920;-83
2022/12/27 18:07:29;;;;;;;;;;;;;;;;;;6223858;23;19912;-81
2022/12/27 18:09:55;;;;;;;;;;;;;;;;;;6197921;23;19998;-83
2022/12/27 18:12:21;;;;;;;;;;;;;;;;;;6200432;23;19915;-83
2022/12/27 18:14:46;;;;;;;;;;;;;;;;;;6223144;23;19935;-83
2022/12/27 18:17:12;;;;;;;;;;;;;;;;;;6232069;23;20533;-85
2022/12/27 18:19:38;;;;;;;;;;;;;;;;;;6224811;22;19920;-83
2022/12/27 18:22:04;;;;;;;;;;;;;;;;;;6269913;23;19915;-84
2022/12/27 18:24:29;;;;;;;;;;;;;;;;;;6213215;23;19931;-83
2022/12/27 18:26:55;;;;;;;;;;;;;;;;;;6268101;23;19911;-82
2022/12/27 18:29:21;;;;;;;;;;;;;;;;;;6238417;23;20307;-84
2022/12/27 18:31:47;;;;;;;;;;;;;;;;;;6242198;23;19906;-83
2022/12/27 18:34:13;;;;;;;;;;;;;;;;;;6270244;22;19915;-87
2022/12/27 18:36:39;;;;;;;;;;;;;;;;;;6245359;23;19922;-85
2022/12/27 18:39:04;;;;;;;;;;;;;;;;;;6245277;22;19923;-85
2022/12/27 18:41:30;;;;;;;;;;;;;;;;;;6258573;22;19976;-85
2022/12/27 18:43:56;;;;;;;;;;;;;;;;;;6246839;22;19911;-82
2022/12/27 18:46:22;;;;;;;;;;;;;;;;;;6273302;22;19896;-87
2022/12/27 18:51:14;;;;;;;;;;;;;;;;;;6272973;22;19923;-82
2022/12/27 18:53:40;;;;;;;;;;;;;;;;;;6270629;22;20294;-83
2022/12/27 18:56:05;;;;;;;;;;;;;;;;;;6234382;23;19924;-85
2022/12/27 18:58:31;;;;;;;;;;;;;;;;;;6233715;23;19981;-83
2022/12/27 19:00:57;;;;;;;;;;;;;;;;;;6231999;23;19916;-85
2022/12/27 19:03:23;;;;;;;;;;;;;;;;;;6229548;23;20353;-85
2022/12/27 19:05:49;;;;;;;;;;;;;;;;;;6235127;23;19912;-87
2022/12/27 19:08:14;;;;;;;;;;;;;;;;;;6239561;23;19935;-85
2022/12/27 19:10:40;;;;;;;;;;;;;;;;;;6240005;23;19912;-88
2022/12/27 19:13:06;;;;;;;;;;;;;;;;;;6241359;23;19916;-89
2022/12/27 19:15:31;;;;;;;;;;;;;;;;;;6241778;23;19916;-89
2022/12/27 19:17:57;;;;;;;;;;;;;;;;;;6241959;23;19922;-86
2022/12/27 19:20:23;;;;;;;;;;;;;;;;;;6242001;23;19918;-84
2022/12/27 19:22:48;;;;;;;;;;;;;;;;;;6241654;23;19899;-86
2022/12/27 19:25:14;;;;;;;;;;;;;;;;;;6243059;23;19924;-85
2022/12/27 21:52:41;;;;;;;;;;;;;;;;;;6253523;23;20001;-76
2022/12/27 21:55:07;;;;;;;;;;;;;;;;;;6202782;23;19915;-75
2022/12/27 21:57:32;;;;;;;;;;;;;;;;;;6248796;23;19922;-75
2022/12/27 21:59:58;;;;;;;;;;;;;;;;;;6242416;23;19996;-75
2022/12/27 22:02:24;;;;;;;;;;;;;;;;;;6218576;23;19919;-77
2022/12/27 22:04:49;;;;;;;;;;;;;;;;;;6243390;23;19924;-76
2022/12/27 22:07:15;;;;;;;;;;;;;;;;;;6215210;23;20492;-76
2022/12/27 22:09:40;;;;;;;;;;;;;;;;;;6215024;23;20260;-77
2022/12/27 22:12:06;;;;;;;;;;;;;;;;;;6248565;23;19911;-81
2022/12/27 22:14:32;;;;;;;;;;;;;;;;;;6256286;23;19916;-81
2022/12/27 22:16:59;;;;;;;;;;;;;;;;;;6225267;23;20356;-80
2022/12/27 22:19:25;;;;;;;;;;;;;;;;;;6226234;23;19938;-80
2022/12/27 22:21:50;;;;;;;;;;;;;;;;;;6250497;23;19912;-81
2022/12/27 22:24:18;;;;;;;;;;;;;;;;;;6252050;23;19928;-80
2022/12/27 22:26:43;;;;;;;;;;;;;;;;;;6253728;23;19911;-81
2022/12/27 22:29:10;;;;;;;;;;;;;;;;;;6228151;23;19911;-80
2022/12/27 22:31:36;;;;;;;;;;;;;;;;;;6257750;23;19919;-79
2022/12/27 22:34:02;;;;;;;;;;;;;;;;;;6259120;23;20348;-81
2022/12/27 22:36:28;;;;;;;;;;;;;;;;;;6255994;23;20307;-81
2022/12/27 22:38:53;;;;;;;;;;;;;;;;;;6249308;23;20139;-82
2022/12/27 22:41:19;;;;;;;;;;;;;;;;;;6253608;23;19957;-80